Defiance, Ohio
Current Conditions -  °F | °C
As of 6:53 PM on Sunday 23 Nov 2014 (Local Time) from KDFI Reporting Station
Light Rain Light Rain  
Wind Chill: 51°   Ceiling: 8500
Heat Index: 51°   Visibility: 10mi
Dew Point: 47°   Wind: 7mph
Humidity: 86%   Direction: 70°ENE
Pressure: 29.5"   Gusts: NA
Location:  41.29°N, 84.36°W
Report Text: KDFI 232353Z AUTO 07006KT 10SM -RA SCT050 OVC085 11/08 A2950 RMK AO2 SLP991 P0000 60013 T01060083 10150 20106 58048
Loading
Personal Weather Stations






























Interactive Weather Map New forecast layout! Learn more

10-Day Weather Forecast

Advertisements
Track Severe Weather on mobile